Time;durP1;ratioP1;P1;durP2;ratioP2;P2;SDS_P1;SDS_P2;PMS_P1;PMS_P2;Temp;Humidity;BMP_temperature;BMP_pressure;BME280_temperature;BME280_humidity;BME280_pressure;Samples;Min_cycle;Max_cycle;Signal;HPM_P1;HPM_P2
2023/04/23 00:00:13;;;;;;;12.23;7.85;;;12.40;36.00;;;;;;5087621;28;20107;-59
2023/04/23 00:02:45;;;;;;;11.13;7.43;;;12.40;37.40;;;;;;5066480;28;20032;-58
2023/04/23 00:05:11;;;;;;;15.80;8.10;;;12.30;37.70;;;;;;5083578;28;20578;-58
2023/04/23 00:07:37;;;;;;;14.82;7.75;;;12.30;38.50;;;;;;5067772;28;20021;-59
2023/04/23 00:10:04;;;;;;;12.77;7.63;;;12.20;39.90;;;;;;5075265;28;20038;-57
2023/04/23 00:12:30;;;;;;;9.77;7.28;;;12.20;39.70;;;;;;5086100;28;20040;-59
2023/04/23 00:14:57;;;;;;;10.35;7.30;;;12.10;39.20;;;;;;5071402;28;20028;-57
2023/04/23 00:17:23;;;;;;;12.57;7.25;;;12.10;41.30;;;;;;5087572;28;20028;-58
2023/04/23 00:19:48;;;;;;;11.65;7.32;;;12.00;40.50;;;;;;5070271;28;20043;-58
2023/04/23 00:22:15;;;;;;;10.43;7.25;;;12.00;40.90;;;;;;5087605;28;20776;-55
2023/04/23 00:24:42;;;;;;;10.75;7.65;;;12.00;42.00;;;;;;5068870;28;20408;-58
2023/04/23 00:27:08;;;;;;;12.18;7.78;;;11.90;41.70;;;;;;5068967;28;20488;-59
2023/04/23 00:29:33;;;;;;;13.15;6.95;;;11.90;43.00;;;;;;5069104;28;20035;-58
2023/04/23 00:31:59;;;;;;;8.52;6.00;;;11.90;42.60;;;;;;5087389;28;20036;-59
2023/04/23 00:34:25;;;;;;;8.55;6.90;;;11.80;42.10;;;;;;5066769;28;20423;-57
2023/04/23 00:36:51;;;;;;;9.63;6.90;;;11.80;44.10;;;;;;5086101;28;20028;-55
2023/04/23 00:39:17;;;;;;;11.40;6.45;;;11.70;43.10;;;;;;5065784;28;20043;-56
2023/04/23 00:41:43;;;;;;;12.30;7.40;;;11.70;42.90;;;;;;5080117;28;20025;-60
2023/04/23 00:44:09;;;;;;;8.35;6.40;;;11.60;44.20;;;;;;5082237;28;20075;-57
2023/04/23 00:46:36;;;;;;;10.45;6.45;;;11.60;45.40;;;;;;5069033;28;20025;-57
2023/04/23 00:49:02;;;;;;;10.25;6.25;;;11.50;44.50;;;;;;5086777;28;20032;-57
2023/04/23 00:51:28;;;;;;;9.52;6.95;;;11.50;44.30;;;;;;5065027;28;20078;-58
2023/04/23 00:53:55;;;;;;;9.32;6.35;;;11.40;44.60;;;;;;5074167;28;20404;-58
2023/04/23 00:56:22;;;;;;;9.45;6.15;;;11.40;46.70;;;;;;5084454;28;20028;-59
2023/04/23 00:58:49;;;;;;;11.10;6.63;;;11.30;47.30;;;;;;5086950;28;20040;-58
2023/04/23 01:01:17;;;;;;;12.63;6.40;;;11.30;47.70;;;;;;5065552;28;20712;-56
2023/04/23 01:03:43;;;;;;;10.80;6.90;;;11.20;48.10;;;;;;5075330;28;20559;-56
2023/04/23 01:06:09;;;;;;;9.75;6.47;;;11.20;47.70;;;;;;5081417;28;20036;-57
2023/04/23 01:08:35;;;;;;;10.88;6.18;;;11.20;49.50;;;;;;5078403;28;20083;-58
2023/04/23 01:11:02;;;;;;;11.80;6.40;;;11.20;49.30;;;;;;5086930;28;20057;-59
2023/04/23 01:13:28;;;;;;;8.60;6.32;;;11.20;51.40;;;;;;5067228;28;20051;-58
2023/04/23 01:15:55;;;;;;;8.35;6.00;;;11.20;51.00;;;;;;5078898;28;20021;-58
2023/04/23 01:18:22;;;;;;;9.55;6.60;;;11.20;50.70;;;;;;5071842;28;20455;-59
2023/04/23 01:20:48;;;;;;;9.60;6.20;;;11.20;53.00;;;;;;5091157;28;20024;-58
2023/04/23 01:23:14;;;;;;;9.57;6.60;;;11.10;52.50;;;;;;5070431;28;20079;-59
2023/04/23 01:25:41;;;;;;;8.15;6.15;;;11.20;54.90;;;;;;5078769;28;20064;-58
2023/04/23 01:28:07;;;;;;;9.90;6.38;;;11.20;53.20;;;;;;5088067;28;20036;-58
2023/04/23 01:30:34;;;;;;;9.23;6.38;;;11.20;54.20;;;;;;5090784;28;20024;-59
2023/04/23 01:33:00;;;;;;;7.47;5.93;;;11.30;52.40;;;;;;5071201;28;20094;-58
2023/04/23 01:35:27;;;;;;;9.73;6.07;;;11.30;53.40;;;;;;5088822;28;20484;-56
2023/04/23 01:37:55;;;;;;;7.75;5.72;;;11.30;52.80;;;;;;5090536;28;20051;-57
2023/04/23 01:40:20;;;;;;;9.60;5.90;;;11.40;52.00;;;;;;5069006;28;20039;-57
2023/04/23 01:42:47;;;;;;;11.23;6.45;;;11.40;52.30;;;;;;5079005;28;20032;-57
2023/04/23 01:45:13;;;;;;;7.25;5.78;;;11.50;52.30;;;;;;5091785;28;20028;-57
2023/04/23 01:47:40;;;;;;;13.82;6.65;;;11.50;53.50;;;;;;5070357;28;20033;-57
2023/04/23 01:50:07;;;;;;;13.32;6.40;;;11.60;55.30;;;;;;5091032;28;20127;-57
2023/04/23 01:52:32;;;;;;;9.80;5.97;;;11.70;54.20;;;;;;5070064;28;20029;-57
2023/04/23 01:54:58;;;;;;;11.00;6.25;;;11.70;52.50;;;;;;5090745;28;20053;-57
2023/04/23 01:57:25;;;;;;;8.90;5.60;;;11.80;52.20;;;;;;5080446;28;20040;-57
2023/04/23 02:00:02;;;;;;;9.43;6.10;;;11.80;52.30;;;;;;5071366;28;20028;-57
2023/04/23 02:02:28;;;;;;;8.18;5.93;;;11.80;52.20;;;;;;5072050;28;20031;-58
2023/04/23 02:04:54;;;;;;;8.70;5.45;;;11.90;51.90;;;;;;5074185;28;20032;-57
2023/04/23 02:07:19;;;;;;;8.40;5.60;;;11.90;52.50;;;;;;5085777;28;20677;-57
2023/04/23 02:09:45;;;;;;;7.53;5.40;;;11.90;53.30;;;;;;5069785;28;20148;-58
2023/04/23 02:12:10;;;;;;;8.57;5.82;;;11.90;53.70;;;;;;5090481;28;20035;-58
2023/04/23 02:14:36;;;;;;;8.95;5.45;;;12.00;52.00;;;;;;5069578;28;20068;-56
2023/04/23 02:17:02;;;;;;;7.88;5.72;;;12.00;52.40;;;;;;5089378;28;20377;-57
2023/04/23 02:19:29;;;;;;;8.98;5.82;;;12.00;53.50;;;;;;5069666;28;20052;-57
2023/04/23 02:21:55;;;;;;;9.93;5.80;;;12.00;53.50;;;;;;5090537;28;20388;-56
2023/04/23 02:24:20;;;;;;;10.07;6.00;;;12.10;53.20;;;;;;5069243;28;20508;-57
2023/04/23 02:26:46;;;;;;;8.45;5.93;;;12.00;53.60;;;;;;5089201;28;20110;-58
2023/04/23 02:29:11;;;;;;;10.45;5.85;;;12.00;53.50;;;;;;5069500;28;20028;-55
2023/04/23 02:31:37;;;;;;;12.45;6.07;;;12.00;54.10;;;;;;5090147;28;20441;-57
2023/04/23 02:34:02;;;;;;;8.45;6.45;;;12.00;54.30;;;;;;5069281;28;20047;-57
2023/04/23 02:36:29;;;;;;;7.43;5.55;;;12.00;54.60;;;;;;5090069;28;20490;-57
2023/04/23 02:38:55;;;;;;;9.73;6.18;;;12.00;54.40;;;;;;5079274;28;20032;-60
2023/04/23 02:41:21;;;;;;;8.07;5.38;;;12.00;54.50;;;;;;5090815;28;20083;-57
2023/04/23 02:43:46;;;;;;;11.27;6.25;;;12.00;53.60;;;;;;5078157;28;20028;-57
2023/04/23 02:46:12;;;;;;;8.55;6.10;;;12.00;54.40;;;;;;5090711;28;20116;-58
2023/04/23 02:48:39;;;;;;;7.85;5.80;;;12.00;54.80;;;;;;5076815;28;20526;-57
2023/04/23 02:51:06;;;;;;;9.82;6.28;;;12.00;53.90;;;;;;5090373;28;20056;-57
2023/04/23 02:53:32;;;;;;;11.20;6.15;;;12.00;53.70;;;;;;5075686;28;20063;-57
2023/04/23 02:55:57;;;;;;;8.88;6.40;;;12.00;54.70;;;;;;5090549;28;20051;-57
2023/04/23 02:58:23;;;;;;;8.70;6.20;;;12.00;54.60;;;;;;5082643;28;20037;-57
2023/04/23 03:00:49;;;;;;;13.02;6.65;;;12.00;55.00;;;;;;5070079;28;20027;-57
2023/04/23 03:03:15;;;;;;;8.13;5.43;;;12.00;54.10;;;;;;5080336;28;20064;-57
2023/04/23 03:05:40;;;;;;;9.45;5.90;;;12.00;53.80;;;;;;5071817;28;20043;-57
2023/04/23 03:08:06;;;;;;;8.70;6.13;;;12.00;54.20;;;;;;5074168;28;20031;-56
2023/04/23 03:10:31;;;;;;;9.55;6.25;;;12.00;54.20;;;;;;5089983;28;20028;-57
2023/04/23 03:12:56;;;;;;;15.05;6.07;;;12.00;54.00;;;;;;5087816;28;20039;-58
2023/04/23 03:15:22;;;;;;;10.75;6.03;;;12.00;54.00;;;;;;5089858;28;20032;-57
2023/04/23 03:17:49;;;;;;;9.68;6.07;;;12.00;54.00;;;;;;5072068;28;20024;-57
2023/04/23 03:20:15;;;;;;;8.90;5.97;;;12.00;54.40;;;;;;5088631;28;20400;-57
2023/04/23 03:22:40;;;;;;;6.95;5.03;;;12.00;54.30;;;;;;5070633;28;20033;-55
2023/04/23 03:25:06;;;;;;;9.10;5.85;;;12.00;54.30;;;;;;5090024;28;20020;-50
2023/04/23 03:27:31;;;;;;;8.35;6.40;;;12.00;54.30;;;;;;5069461;28;20028;-54
2023/04/23 03:29:57;;;;;;;9.02;5.78;;;12.00;54.30;;;;;;5089804;28;20109;-54
2023/04/23 03:32:23;;;;;;;7.05;5.25;;;12.00;54.30;;;;;;5069743;28;20505;-54
2023/04/23 03:34:48;;;;;;;8.02;5.53;;;12.00;54.10;;;;;;5069281;28;20504;-52
2023/04/23 03:37:14;;;;;;;6.18;4.90;;;12.00;54.60;;;;;;5088379;28;20035;-53
2023/04/23 03:39:39;;;;;;;7.57;5.30;;;12.00;54.30;;;;;;5067905;28;20086;-54
2023/04/23 03:42:05;;;;;;;8.82;5.90;;;12.00;55.80;;;;;;5088732;28;20460;-52
2023/04/23 03:44:30;;;;;;;8.20;5.35;;;12.00;55.20;;;;;;5067935;28;20024;-54
2023/04/23 03:46:56;;;;;;;10.23;6.10;;;12.00;56.80;;;;;;5088885;28;20369;-53
2023/04/23 03:49:21;;;;;;;9.75;6.25;;;12.00;56.00;;;;;;5067758;28;20024;-53
2023/04/23 03:51:47;;;;;;;8.38;5.85;;;12.00;57.50;;;;;;5078224;28;20032;-52
2023/04/23 03:54:12;;;;;;;7.80;5.53;;;12.00;58.90;;;;;;5086672;28;20077;-52
2023/04/23 03:56:38;;;;;;;10.82;5.97;;;12.10;62.30;;;;;;5089080;28;20110;-54
2023/04/23 03:59:03;;;;;;;11.30;6.38;;;12.10;63.50;;;;;;5067726;28;20719;-53
2023/04/23 04:01:31;;;;;;;10.18;7.30;;;12.10;66.70;;;;;;5088236;28;20036;-54
2023/04/23 04:03:56;;;;;;;9.75;5.93;;;12.00;69.10;;;;;;5067412;28;20059;-53
2023/04/23 04:06:22;;;;;;;12.57;6.63;;;12.00;67.80;;;;;;5079014;28;20307;-51
2023/04/23 04:08:47;;;;;;;13.77;6.97;;;12.00;71.90;;;;;;5086941;28;20024;-54
2023/04/23 04:11:13;;;;;;;9.07;6.63;;;11.90;74.60;;;;;;5069309;28;20565;-53
2023/04/23 04:13:38;;;;;;;8.55;6.68;;;11.90;72.40;;;;;;5086553;28;20066;-54
2023/04/23 04:16:04;;;;;;;10.52;6.60;;;11.90;73.20;;;;;;5069297;28;20035;-54
2023/04/23 04:18:30;;;;;;;12.88;7.25;;;11.90;73.80;;;;;;5086322;28;20035;-54
2023/04/23 04:20:55;;;;;;;11.77;6.82;;;11.80;78.10;;;;;;5088996;28;20369;-53
2023/04/23 04:23:21;;;;;;;10.20;6.68;;;11.80;76.60;;;;;;5072744;28;20028;-54
2023/04/23 04:25:46;;;;;;;13.05;6.82;;;11.80;77.10;;;;;;5088776;28;20031;-51
2023/04/23 04:28:12;;;;;;;9.80;6.72;;;11.80;77.60;;;;;;5071490;28;20024;-54
2023/04/23 04:30:39;;;;;;;8.48;6.72;;;11.80;79.30;;;;;;5088851;28;20020;-53
2023/04/23 04:33:04;;;;;;;9.70;6.18;;;11.70;77.60;;;;;;5070112;28;20112;-49
2023/04/23 04:35:30;;;;;;;11.35;6.20;;;11.80;76.30;;;;;;5088773;28;20548;-54
2023/04/23 04:37:55;;;;;;;9.27;6.22;;;11.80;77.20;;;;;;5069258;28;20446;-51
2023/04/23 04:40:21;;;;;;;12.15;7.53;;;11.80;76.80;;;;;;5088518;28;20322;-51
2023/04/23 04:42:46;;;;;;;9.52;6.28;;;11.80;78.60;;;;;;5068092;28;20331;-53
2023/04/23 04:45:12;;;;;;;6.57;5.35;;;11.90;76.40;;;;;;5088836;28;20539;-50
2023/04/23 04:47:37;;;;;;;7.55;5.88;;;12.00;76.90;;;;;;5068281;28;20103;-50
2023/04/23 04:50:04;;;;;;;11.77;6.25;;;12.20;78.80;;;;;;5085985;28;20028;-53
2023/04/23 04:52:29;;;;;;;9.38;6.82;;;12.50;77.30;;;;;;5068407;28;20028;-53
2023/04/23 04:54:55;;;;;;;8.38;6.05;;;12.60;76.20;;;;;;5085857;28;20036;-53
2023/04/23 04:57:21;;;;;;;8.55;5.78;;;12.70;77.20;;;;;;5088180;28;20032;-54
2023/04/23 04:59:48;;;;;;;8.40;5.90;;;12.80;80.00;;;;;;5066633;28;20069;-53
2023/04/23 05:02:13;;;;;;;7.90;5.50;;;12.90;77.20;;;;;;5087695;28;20024;-54
2023/04/23 05:04:39;;;;;;;6.47;5.47;;;13.20;77.20;;;;;;5067113;28;20446;-52
2023/04/23 05:07:04;;;;;;;6.82;5.82;;;13.50;77.90;;;;;;5085449;28;20368;-54
2023/04/23 05:09:29;;;;;;;8.77;5.72;;;13.70;76.20;;;;;;5066797;28;20078;-52
2023/04/23 05:11:55;;;;;;;10.05;5.78;;;13.90;73.70;;;;;;5087357;28;20103;-52
2023/04/23 05:14:21;;;;;;;8.77;6.20;;;14.20;72.90;;;;;;5066613;28;20036;-49
2023/04/23 05:16:46;;;;;;;7.35;5.60;;;14.70;70.60;;;;;;5087702;28;20171;-54
2023/04/23 05:19:12;;;;;;;8.52;5.97;;;15.40;68.50;;;;;;5066722;28;20374;-54
2023/04/23 05:21:38;;;;;;;8.25;6.00;;;15.90;63.50;;;;;;5087382;28;20039;-53
2023/04/23 05:24:04;;;;;;;7.05;4.97;;;16.60;62.40;;;;;;5066758;28;20378;-49
2023/04/23 05:26:29;;;;;;;7.07;5.53;;;17.10;58.70;;;;;;5087445;28;20035;-52
2023/04/23 05:28:55;;;;;;;8.05;6.05;;;17.10;55.70;;;;;;5076882;28;20032;-52
2023/04/23 05:31:20;;;;;;;8.95;5.80;;;17.00;55.40;;;;;;5068218;28;20025;-54
2023/04/23 05:33:46;;;;;;;8.20;5.57;;;17.00;54.80;;;;;;5085183;28;20039;-52
2023/04/23 05:36:12;;;;;;;12.85;5.45;;;16.80;54.70;;;;;;5068322;28;20155;-52
2023/04/23 05:38:38;;;;;;;10.23;6.50;;;16.80;54.60;;;;;;5085515;28;20044;-54
2023/04/23 05:41:03;;;;;;;8.05;5.13;;;17.20;54.10;;;;;;5068122;28;20028;-53
2023/04/23 05:43:29;;;;;;;8.75;5.28;;;17.90;53.30;;;;;;5085257;28;20077;-55
2023/04/23 05:45:54;;;;;;;8.90;5.90;;;18.30;50.10;;;;;;5087927;28;20020;-54
2023/04/23 05:48:21;;;;;;;7.45;5.60;;;18.30;48.80;;;;;;5061779;28;20053;-48
2023/04/23 05:50:48;;;;;;;8.88;5.68;;;18.20;48.60;;;;;;5071574;28;20077;-54
2023/04/23 05:53:13;;;;;;;6.03;5.18;;;18.20;48.70;;;;;;5069252;28;20078;-53
2023/04/23 05:55:39;;;;;;;6.20;5.10;;;18.20;48.50;;;;;;5067268;28;20037;-55
2023/04/23 05:58:05;;;;;;;7.75;5.57;;;18.20;46.70;;;;;;5080846;28;20530;-50
2023/04/23 06:00:31;;;;;;;7.40;5.05;;;18.30;46.50;;;;;;5068397;28;20135;-52
2023/04/23 06:02:56;;;;;;;8.63;5.60;;;18.80;44.30;;;;;;5084453;28;20115;-51
2023/04/23 06:05:22;;;;;;;8.07;5.78;;;19.40;41.20;;;;;;5078008;28;20031;-50
2023/04/23 06:07:47;;;;;;;6.45;4.82;;;19.90;40.40;;;;;;5076844;28;20111;-54
2023/04/23 06:10:13;;;;;;;8.25;5.05;;;20.50;38.80;;;;;;5069114;28;20499;-48
2023/04/23 06:12:40;;;;;;;9.52;5.07;;;20.60;37.20;;;;;;5085725;28;20058;-54
2023/04/23 06:15:07;;;;;;;5.50;4.40;;;20.60;37.20;;;;;;5068821;28;20070;-52
2023/04/23 06:17:33;;;;;;;6.93;4.80;;;20.70;36.50;;;;;;5085736;28;20036;-53
2023/04/23 06:19:59;;;;;;;4.90;4.28;;;20.80;36.80;;;;;;5079319;28;20037;-51
2023/04/23 06:22:25;;;;;;;5.05;4.22;;;20.80;36.10;;;;;;5076670;28;20118;-54
2023/04/23 06:24:50;;;;;;;8.25;4.78;;;20.60;36.80;;;;;;5068919;28;20052;-53
2023/04/23 06:27:16;;;;;;;6.45;4.82;;;20.40;36.30;;;;;;5074805;28;20389;-53
2023/04/23 06:29:41;;;;;;;5.20;4.57;;;20.10;36.90;;;;;;5070451;28;20060;-52
2023/04/23 06:32:07;;;;;;;6.38;4.93;;;19.90;37.50;;;;;;5076416;28;20107;-50
2023/04/23 06:34:32;;;;;;;6.38;4.85;;;19.70;39.00;;;;;;5074120;28;20037;-52
2023/04/23 06:36:58;;;;;;;8.35;4.50;;;19.50;39.80;;;;;;5082400;28;20032;-53
2023/04/23 06:39:23;;;;;;;5.80;4.30;;;19.20;40.20;;;;;;5070596;28;20024;-52
2023/04/23 06:41:49;;;;;;;4.68;4.28;;;19.10;41.10;;;;;;5082367;28;20036;-52
2023/04/23 06:44:14;;;;;;;5.10;4.60;;;18.90;42.00;;;;;;5071659;28;20079;-50
2023/04/23 06:46:40;;;;;;;7.03;4.55;;;19.00;42.60;;;;;;5080291;28;20585;-52
2023/04/23 06:49:05;;;;;;;8.38;4.72;;;19.20;42.30;;;;;;5068385;28;20045;-52
2023/04/23 06:51:31;;;;;;;4.63;4.07;;;19.40;42.00;;;;;;5071782;28;20036;-51
2023/04/23 06:53:57;;;;;;;6.38;4.40;;;19.60;42.00;;;;;;5074172;28;20423;-50
2023/04/23 06:56:23;;;;;;;6.20;4.03;;;19.90;41.40;;;;;;5077050;28;20020;-51
2023/04/23 06:58:48;;;;;;;6.35;5.05;;;19.90;41.10;;;;;;5059169;28;20029;-52
2023/04/23 07:01:14;;;;;;;8.38;4.35;;;19.70;41.20;;;;;;5073671;28;20080;-51
2023/04/23 07:03:43;;;;;;;7.18;5.07;;;19.50;41.90;;;;;;5077252;28;20549;-54
2023/04/23 07:06:09;;;;;;;6.60;4.22;;;19.40;42.50;;;;;;5065678;28;20016;-53
2023/04/23 07:08:34;;;;;;;6.00;4.38;;;19.30;43.20;;;;;;5074512;28;20079;-55
2023/04/23 07:11:01;;;;;;;4.38;3.88;;;19.40;43.50;;;;;;5058642;28;20519;-55
2023/04/23 07:13:26;;;;;;;4.85;4.13;;;19.40;43.70;;;;;;5067996;28;20519;-51
2023/04/23 07:15:52;;;;;;;4.90;4.10;;;19.50;43.80;;;;;;5080280;28;20040;-54
2023/04/23 07:18:17;;;;;;;6.05;4.28;;;19.50;44.20;;;;;;5069034;28;20038;-52
2023/04/23 07:20:43;;;;;;;5.18;4.20;;;19.50;44.00;;;;;;5079774;28;20047;-53
2023/04/23 07:23:09;;;;;;;4.10;3.60;;;19.50;44.30;;;;;;5073414;28;20567;-55
2023/04/23 07:25:34;;;;;;;8.77;4.07;;;19.50;45.00;;;;;;5073930;28;20028;-52
2023/04/23 07:28:02;;;;;;;6.68;3.92;;;19.40;45.50;;;;;;5077617;28;20020;-51
2023/04/23 07:30:27;;;;;;;4.40;3.25;;;19.30;45.90;;;;;;5072103;28;20024;-54
2023/04/23 07:32:54;;;;;;;4.28;3.78;;;19.20;46.50;;;;;;5082494;28;20755;-55
2023/04/23 07:35:21;;;;;;;5.25;4.30;;;19.10;46.90;;;;;;5070609;28;20047;-51
2023/04/23 07:37:47;;;;;;;4.85;3.50;;;19.00;47.40;;;;;;5081458;28;20399;-55
2023/04/23 07:40:12;;;;;;;5.93;4.15;;;18.90;47.90;;;;;;5066850;28;20107;-54
2023/04/23 07:42:38;;;;;;;4.78;4.00;;;18.70;49.00;;;;;;5067107;28;20036;-55
2023/04/23 07:45:04;;;;;;;7.80;4.65;;;18.60;49.80;;;;;;5084367;28;20030;-52
2023/04/23 07:47:30;;;;;;;3.95;3.55;;;18.50;50.60;;;;;;5068287;28;20029;-55
2023/04/23 07:49:55;;;;;;;4.80;3.58;;;18.40;51.20;;;;;;5085072;28;20539;-53
2023/04/23 07:52:21;;;;;;;5.90;4.22;;;18.30;51.80;;;;;;5068380;28;20089;-51
2023/04/23 07:54:46;;;;;;;4.22;3.83;;;18.30;52.70;;;;;;5085270;28;20024;-53
2023/04/23 07:57:12;;;;;;;6.30;4.13;;;18.10;53.60;;;;;;5088505;28;20119;-54
2023/04/23 07:59:40;;;;;;;7.85;4.43;;;17.90;54.50;;;;;;5072272;28;20389;-53
2023/04/23 08:02:06;;;;;;;6.70;4.18;;;17.90;54.80;;;;;;5088209;28;20024;-55
2023/04/23 08:04:31;;;;;;;6.68;4.22;;;17.80;56.10;;;;;;5070762;28;20400;-53
2023/04/23 08:06:57;;;;;;;4.75;4.15;;;17.80;57.20;;;;;;5042784;28;20055;-55
2023/04/23 08:09:23;;;;;;;6.22;4.20;;;17.70;57.80;;;;;;5085274;28;20054;-50
2023/04/23 08:11:48;;;;;;;6.95;4.03;;;17.70;58.50;;;;;;5068397;28;20032;-55
2023/04/23 08:14:17;;;;;;;4.70;3.67;;;17.60;59.40;;;;;;5069117;28;20028;-55
2023/04/23 08:16:42;;;;;;;6.75;4.43;;;17.60;61.40;;;;;;5088507;28;20021;-53
2023/04/23 08:19:08;;;;;;;5.85;3.92;;;17.50;61.00;;;;;;5068781;28;20039;-53
2023/04/23 08:21:33;;;;;;;7.03;4.25;;;17.40;62.80;;;;;;5088628;28;20028;-53
2023/04/23 08:24:01;;;;;;;4.97;4.07;;;17.40;64.50;;;;;;5073177;28;20380;-55
2023/04/23 08:26:27;;;;;;;6.10;4.43;;;17.20;66.20;;;;;;5068391;28;20035;-52
2023/04/23 08:28:52;;;;;;;5.95;4.30;;;17.20;67.90;;;;;;5083737;28;20047;-52
2023/04/23 08:31:19;;;;;;;4.18;3.78;;;17.10;69.80;;;;;;5088035;28;20032;-53
2023/04/23 08:33:44;;;;;;;5.55;4.30;;;17.00;74.50;;;;;;5080706;28;20393;-53
2023/04/23 08:36:10;;;;;;;7.88;4.35;;;16.80;77.40;;;;;;5066330;28;20035;-53
2023/04/23 08:38:35;;;;;;;4.47;3.90;;;16.70;80.30;;;;;;5083645;28;20105;-52
2023/04/23 08:41:05;;;;;;;5.60;3.70;;;16.50;82.60;;;;;;5068477;28;20417;-54
2023/04/23 08:43:37;;;;;;;5.97;4.13;;;16.40;83.40;;;;;;5078770;28;20032;-55
2023/04/23 08:46:03;;;;;;;5.55;3.83;;;16.40;85.50;;;;;;5048026;28;20421;-56
2023/04/23 08:48:29;;;;;;;4.00;3.60;;;16.40;88.70;;;;;;5084546;28;20020;-55
2023/04/23 08:50:56;;;;;;;4.32;3.65;;;16.40;90.40;;;;;;5087733;28;20028;-53
2023/04/23 08:53:26;;;;;;;5.30;4.18;;;16.30;91.30;;;;;;5066155;28;20090;-54
2023/04/23 08:55:55;;;;;;;4.82;3.75;;;16.20;91.50;;;;;;5047781;28;20508;-54
2023/04/23 08:58:20;;;;;;;4.88;3.58;;;16.10;92.00;;;;;;5084552;28;20059;-55
2023/04/23 09:00:47;;;;;;;4.45;3.53;;;16.20;92.20;;;;;;5087165;28;20055;-55
2023/04/23 09:03:16;;;;;;;5.20;3.70;;;16.20;93.90;;;;;;5066040;28;20044;-55
2023/04/23 09:05:42;;;;;;;3.60;3.10;;;16.20;93.10;;;;;;5073568;28;20021;-52
2023/04/23 09:08:10;;;;;;;3.67;3.28;;;16.30;93.30;;;;;;5067590;28;20578;-55
2023/04/23 09:10:49;;;;;;;4.47;3.45;;;16.40;94.60;;;;;;5084292;28;20491;-53
2023/04/23 09:13:15;;;;;;;6.30;4.00;;;16.40;95.10;;;;;;5078714;28;20260;-54
2023/04/23 09:15:42;;;;;;;3.17;2.75;;;16.40;95.20;;;;;;5070796;28;20028;-54
2023/04/23 09:18:08;;;;;;;5.28;3.40;;;16.40;94.80;;;;;;5084926;28;20115;-51
2023/04/23 09:20:34;;;;;;;4.05;3.13;;;16.50;95.30;;;;;;5089231;28;20040;-55
2023/04/23 09:23:05;;;;;;;4.47;3.53;;;16.60;95.70;;;;;;5087151;28;20036;-54
2023/04/23 09:25:31;;;;;;;4.30;3.20;;;16.60;96.10;;;;;;5085183;28;20032;-52
2023/04/23 09:27:57;;;;;;;5.03;3.30;;;16.80;96.80;;;;;;5083569;28;20039;-58
2023/04/23 09:30:26;;;;;;;3.90;3.50;;;17.00;94.90;;;;;;5088666;28;20020;-56
2023/04/23 09:32:51;;;;;;;5.35;3.78;;;17.20;95.00;;;;;;5065157;28;20043;-57
2023/04/23 09:35:21;;;;;;;4.22;3.33;;;17.30;93.70;;;;;;5086257;28;20036;-56
2023/04/23 09:37:48;;;;;;;4.63;3.22;;;17.50;94.50;;;;;;5089210;28;20030;-58
2023/04/23 09:40:23;;;;;;;3.50;3.17;;;17.80;93.30;;;;;;5090948;28;20020;-58
2023/04/23 09:42:52;;;;;;;5.10;2.83;;;18.00;92.00;;;;;;5069680;28;20484;-59
2023/04/23 09:45:18;;;;;;;3.72;2.60;;;18.20;91.00;;;;;;5089251;28;20032;-58
2023/04/23 09:47:53;;;;;;;5.72;3.05;;;18.20;90.50;;;;;;5090193;28;20035;-58
2023/04/23 09:50:30;;;;;;;5.45;3.00;;;18.20;89.20;;;;;;5051947;28;20029;-58
2023/04/23 09:52:55;;;;;;;5.30;3.13;;;18.10;90.10;;;;;;5074381;28;20035;-58
2023/04/23 09:55:37;;;;;;;4.63;2.58;;;17.90;90.40;;;;;;5072226;28;20550;-58
2023/04/23 09:58:04;;;;;;;5.22;3.47;;;17.80;92.10;;;;;;5074494;28;20053;-59
2023/04/23 10:00:35;;;;;;;4.97;3.55;;;17.60;91.50;;;;;;5091902;28;20062;-57
2023/04/23 10:03:01;;;;;;;8.30;3.35;;;17.60;91.60;;;;;;5073158;28;20020;-61
2023/04/23 10:05:27;;;;;;;3.90;3.15;;;17.80;92.40;;;;;;5082361;28;20039;-60
2023/04/23 10:07:55;;;;;;;4.05;3.15;;;18.20;90.70;;;;;;5080990;28;20111;-63
2023/04/23 10:10:20;;;;;;;3.80;3.28;;;18.50;88.70;;;;;;5091721;28;20039;-60
2023/04/23 10:12:46;;;;;;;3.72;3.20;;;18.80;86.00;;;;;;5076048;28;20032;-58
2023/04/23 10:15:13;;;;;;;6.28;3.53;;;18.90;83.00;;;;;;5091816;28;20020;-58
2023/04/23 10:17:40;;;;;;;3.80;3.00;;;18.90;82.10;;;;;;5075137;28;20024;-57
2023/04/23 10:20:08;;;;;;;5.28;3.30;;;18.80;81.10;;;;;;5091553;28;20032;-58
2023/04/23 10:22:36;;;;;;;5.43;3.10;;;18.70;80.60;;;;;;5076824;28;20395;-57
2023/04/23 10:25:07;;;;;;;3.08;2.75;;;18.60;80.10;;;;;;5091493;28;20060;-58
2023/04/23 10:27:38;;;;;;;3.47;3.13;;;18.50;80.70;;;;;;5059301;28;20061;-58
2023/04/23 10:30:05;;;;;;;4.25;3.13;;;18.40;81.40;;;;;;5091505;28;20404;-58
2023/04/23 10:32:33;;;;;;;3.53;3.22;;;18.20;82.70;;;;;;5074169;28;20032;-58
2023/04/23 10:34:59;;;;;;;3.70;3.20;;;17.90;84.20;;;;;;5091313;28;20123;-58
2023/04/23 10:37:24;;;;;;;3.53;3.20;;;17.60;87.60;;;;;;5073373;28;20103;-58
2023/04/23 10:39:54;;;;;;;3.72;3.33;;;17.40;90.30;;;;;;5091492;28;20036;-57
2023/04/23 10:42:21;;;;;;;3.63;2.70;;;17.20;91.90;;;;;;5071976;28;20031;-59
2023/04/23 10:44:47;;;;;;;4.88;3.03;;;17.00;91.90;;;;;;5091239;28;20028;-58
2023/04/23 10:47:16;;;;;;;2.90;2.60;;;16.90;92.60;;;;;;5070352;28;20116;-58
2023/04/23 10:49:43;;;;;;;2.22;2.03;;;16.70;92.00;;;;;;5091100;28;20034;-57
2023/04/23 10:52:14;;;;;;;3.70;2.15;;;16.60;92.50;;;;;;5070699;28;20119;-57
2023/04/23 10:54:41;;;;;;;3.65;2.30;;;16.60;93.10;;;;;;5091160;28;20028;-59
2023/04/23 10:57:08;;;;;;;2.40;1.85;;;16.60;92.70;;;;;;5070242;28;20024;-57
2023/04/23 10:59:37;;;;;;;3.70;1.80;;;16.90;92.20;;;;;;5091125;28;20020;-58
2023/04/23 11:02:08;;;;;;;1.73;1.30;;;17.10;90.30;;;;;;5069632;28;20035;-57
2023/04/23 11:04:35;;;;;;;2.17;1.25;;;17.40;87.90;;;;;;5088769;28;20032;-56
2023/04/23 11:07:08;;;;;;;1.38;1.13;;;17.80;84.70;;;;;;5069221;28;20494;-59
2023/04/23 11:09:38;;;;;;;1.45;1.30;;;18.00;80.30;;;;;;5090654;28;20024;-59
2023/04/23 11:12:33;;;;;;;1.73;1.27;;;18.20;77.50;;;;;;5069073;28;20040;-56
2023/04/23 11:15:12;;;;;;;1.05;0.90;;;18.40;72.20;;;;;;5066086;28;20127;-59
2023/04/23 11:17:37;;;;;;;2.15;1.40;;;18.60;72.30;;;;;;5059625;28;20032;-58
2023/04/23 11:20:05;;;;;;;1.30;1.20;;;18.80;71.60;;;;;;5090363;28;20020;-60
2023/04/23 11:22:37;;;;;;;1.65;1.45;;;18.90;70.10;;;;;;5073194;28;20043;-58
2023/04/23 11:25:05;;;;;;;0.90;0.90;;;19.20;69.60;;;;;;5090434;28;20411;-58
2023/04/23 11:27:31;;;;;;;1.23;0.93;;;19.60;68.00;;;;;;5073093;28;20039;-57
2023/04/23 11:29:57;;;;;;;1.10;1.00;;;19.70;65.80;;;;;;5088927;28;20523;-59
2023/04/23 11:32:23;;;;;;;0.80;0.65;;;19.70;64.90;;;;;;5072031;28;20036;-59
2023/04/23 11:34:50;;;;;;;2.38;1.05;;;19.70;64.50;;;;;;5090184;28;20495;-58
2023/04/23 11:37:18;;;;;;;2.05;0.80;;;19.60;63.80;;;;;;5070985;28;20031;-59
2023/04/23 11:39:46;;;;;;;1.73;1.00;;;19.60;63.40;;;;;;5090147;28;20024;-57
2023/04/23 11:42:16;;;;;;;1.23;0.90;;;19.60;62.80;;;;;;5070048;28;20037;-56
2023/04/23 11:44:43;;;;;;;1.27;0.93;;;19.60;61.70;;;;;;5090162;28;20030;-58
2023/04/23 11:47:11;;;;;;;2.15;0.70;;;19.70;61.10;;;;;;5068040;28;20111;-58
2023/04/23 11:49:42;;;;;;;1.33;0.85;;;19.80;61.20;;;;;;5089562;28;20028;-56
2023/04/23 11:52:09;;;;;;;0.88;0.80;;;19.80;60.20;;;;;;5067949;28;20043;-58
2023/04/23 11:54:35;;;;;;;0.82;0.70;;;19.90;59.80;;;;;;5085084;28;20032;-57
2023/04/23 11:57:03;;;;;;;2.83;1.15;;;19.80;58.90;;;;;;5087462;28;20023;-59
2023/04/23 11:59:29;;;;;;;1.45;0.77;;;19.80;58.60;;;;;;5089687;28;20073;-58
2023/04/23 12:01:57;;;;;;;0.77;0.70;;;19.70;58.60;;;;;;5068187;28;20036;-56
2023/04/23 12:04:27;;;;;;;1.20;1.10;;;19.70;57.80;;;;;;5072972;28;20029;-59
2023/04/23 12:06:54;;;;;;;0.98;0.95;;;19.70;56.20;;;;;;5089691;28;20027;-59
2023/04/23 12:09:22;;;;;;;1.13;1.02;;;19.60;55.80;;;;;;5065957;28;20502;-57
2023/04/23 12:11:51;;;;;;;1.88;1.23;;;19.60;55.70;;;;;;5085802;28;20027;-58
2023/04/23 12:14:19;;;;;;;2.33;1.10;;;19.70;55.50;;;;;;5089432;28;20055;-56
2023/04/23 12:16:50;;;;;;;1.70;1.27;;;19.70;55.30;;;;;;5074095;28;20028;-58
2023/04/23 12:19:27;;;;;;;1.40;1.30;;;19.80;54.60;;;;;;5089581;28;20077;-57
2023/04/23 12:21:55;;;;;;;1.88;1.27;;;19.90;54.70;;;;;;5071384;28;20494;-56
2023/04/23 12:24:26;;;;;;;1.40;1.30;;;20.10;54.20;;;;;;5089378;28;20036;-57
2023/04/23 12:26:54;;;;;;;2.85;1.73;;;20.20;52.90;;;;;;5073096;28;20070;-57
2023/04/23 12:29:22;;;;;;;2.05;1.85;;;20.20;52.40;;;;;;5086951;28;20028;-58
2023/04/23 12:31:49;;;;;;;2.53;1.85;;;20.20;51.40;;;;;;5069063;28;20043;-57
2023/04/23 12:34:18;;;;;;;1.70;1.52;;;20.20;51.80;;;;;;5075492;28;20040;-58
2023/04/23 12:36:49;;;;;;;2.63;1.80;;;20.10;51.20;;;;;;5089337;28;20396;-59
2023/04/23 12:39:32;;;;;;;1.38;1.25;;;20.00;49.50;;;;;;5052013;28;20029;-59
2023/04/23 12:42:06;;;;;;;3.17;1.52;;;19.90;49.60;;;;;;5089413;28;20035;-58